Time;durP1;ratioP1;P1;durP2;ratioP2;P2;SDS_P1;SDS_P2;PMS_P1;PMS_P2;Temp;Humidity;BMP_temperature;BMP_pressure;BME280_temperature;BME280_humidity;BME280_pressure;Samples;Min_cycle;Max_cycle;Signal;HPM_P1;HPM_P2
2022/08/28 00:02:10;;;;;;;5.57;2.50;;;16.80;99.90;;;;;;5050237;28;20790;-80
2022/08/28 00:04:36;;;;;;;4.05;2.47;;;16.80;99.90;;;;;;5049423;28;20041;-81
2022/08/28 00:07:02;;;;;;;5.00;2.63;;;16.80;99.90;;;;;;5044815;28;20056;-81
2022/08/28 00:09:27;;;;;;;2.97;2.45;;;16.80;99.90;;;;;;5039026;28;20556;-80
2022/08/28 00:11:53;;;;;;;3.78;2.30;;;16.80;99.90;;;;;;5046794;28;20037;-80
2022/08/28 00:14:20;;;;;;;5.18;2.75;;;16.80;99.90;;;;;;5049845;28;20053;-80
2022/08/28 00:16:47;;;;;;;6.18;2.85;;;16.80;99.90;;;;;;5049639;28;20449;-80
2022/08/28 00:19:14;;;;;;;6.15;2.70;;;16.70;99.90;;;;;;5049525;28;20056;-80
2022/08/28 00:21:40;;;;;;;3.55;2.70;;;16.80;99.90;;;;;;5037373;28;20079;-80
2022/08/28 00:24:05;;;;;;;3.75;2.70;;;16.80;99.90;;;;;;5048828;28;20424;-80
2022/08/28 00:29:15;;;;;;;4.13;2.63;;;16.80;99.90;;;;;;5049341;28;20101;-79
2022/08/28 00:31:41;;;;;;;3.55;2.67;;;16.80;99.90;;;;;;5049865;28;20428;-80
2022/08/28 00:34:08;;;;;;;3.35;2.90;;;16.80;99.90;;;;;;5049234;28;20382;-80
2022/08/28 00:36:35;;;;;;;5.50;2.67;;;16.80;99.90;;;;;;5035684;28;20467;-80
2022/08/28 00:39:00;;;;;;;4.00;2.75;;;16.80;99.90;;;;;;5029527;28;20080;-80
2022/08/28 00:41:29;;;;;;;3.42;2.58;;;16.90;99.90;;;;;;5030526;28;20474;-81
2022/08/28 00:44:17;;;;;;;4.85;2.95;;;16.90;99.90;;;;;;5044410;28;20021;-80
2022/08/28 00:46:45;;;;;;;3.33;2.65;;;16.80;99.90;;;;;;5042218;28;20033;-80
2022/08/28 00:49:12;;;;;;;4.32;2.90;;;16.80;99.90;;;;;;5046879;28;20025;-80
2022/08/28 00:54:23;;;;;;;;;;;16.80;99.90;;;;;;5048708;28;20047;-80
2022/08/28 00:56:52;;;;;;;4.28;3.10;;;16.80;99.90;;;;;;5051802;28;20011;-80
2022/08/28 00:59:20;;;;;;;5.47;2.90;;;16.80;99.90;;;;;;5051532;28;20036;-80
2022/08/28 01:01:48;;;;;;;4.97;3.08;;;16.80;99.90;;;;;;5051600;28;20017;-80
2022/08/28 01:04:17;;;;;;;4.13;3.13;;;16.80;99.90;;;;;;5051773;28;20032;-79
2022/08/28 01:06:45;;;;;;;3.72;2.88;;;16.90;99.90;;;;;;5045145;28;20068;-80
2022/08/28 01:09:11;;;;;;;4.50;3.00;;;16.90;99.90;;;;;;5042950;28;20021;-80
2022/08/28 01:11:39;;;;;;;5.43;2.90;;;16.90;99.90;;;;;;5046100;28;20527;-80
2022/08/28 01:14:06;;;;;;;4.80;3.15;;;16.90;99.90;;;;;;5051252;28;20063;-80
2022/08/28 01:16:32;;;;;;;4.00;2.90;;;16.90;99.90;;;;;;5051087;28;20112;-80
2022/08/28 01:18:59;;;;;;;3.92;2.80;;;16.90;99.90;;;;;;5051213;28;20025;-80
2022/08/28 01:21:35;;;;;;;5.25;3.15;;;16.90;99.90;;;;;;5038333;28;20034;-80
2022/08/28 01:24:14;;;;;;;3.95;2.90;;;16.90;99.90;;;;;;5050061;28;20437;-81
2022/08/28 01:26:40;;;;;;;5.32;3.35;;;16.90;99.90;;;;;;5050996;28;20385;-81
2022/08/28 01:29:07;;;;;;;6.20;2.97;;;16.90;99.90;;;;;;5036284;28;20028;-81
2022/08/28 01:31:34;;;;;;;5.00;3.08;;;16.90;99.90;;;;;;5050033;28;20033;-81
2022/08/28 01:34:01;;;;;;;6.45;2.92;;;16.90;99.90;;;;;;5050226;28;20100;-81
2022/08/28 01:36:28;;;;;;;4.32;2.92;;;16.90;99.90;;;;;;5043300;28;20094;-81
2022/08/28 01:39:07;;;;;;;4.20;3.10;;;16.90;99.90;;;;;;5047764;28;20029;-81
2022/08/28 01:41:34;;;;;;;5.53;3.10;;;16.90;99.90;;;;;;5036395;28;20029;-80
2022/08/28 01:44:00;;;;;;;4.63;3.50;;;16.90;99.90;;;;;;5043477;28;20029;-81
2022/08/28 01:46:25;;;;;;;5.25;3.60;;;16.90;99.90;;;;;;5040804;28;20448;-81
2022/08/28 01:48:51;;;;;;;5.65;3.63;;;16.90;99.90;;;;;;5049392;28;20075;-80
2022/08/28 01:51:16;;;;;;;4.75;3.63;;;16.90;99.90;;;;;;5044179;28;20040;-80
2022/08/28 01:53:42;;;;;;;4.88;3.47;;;16.90;99.90;;;;;;5047463;28;20064;-80
2022/08/28 01:56:12;;;;;;;4.28;3.10;;;16.90;99.90;;;;;;5047914;28;20104;-80
2022/08/28 01:58:38;;;;;;;5.35;3.72;;;16.90;99.90;;;;;;5048070;28;20095;-80
2022/08/28 02:01:12;;;;;;;5.28;3.53;;;16.90;99.90;;;;;;5047632;28;20047;-80
2022/08/28 02:03:38;;;;;;;7.43;3.87;;;16.90;99.90;;;;;;5047816;28;20029;-80
2022/08/28 02:06:05;;;;;;;4.63;3.30;;;16.90;99.90;;;;;;5039105;28;20037;-80
2022/08/28 02:08:30;;;;;;;5.93;3.80;;;16.90;99.90;;;;;;5044730;28;20188;-80
2022/08/28 02:10:56;;;;;;;4.68;3.70;;;16.90;99.90;;;;;;5033959;28;20112;-80
2022/08/28 02:13:21;;;;;;;4.85;3.50;;;16.90;99.90;;;;;;5043034;28;20025;-80
2022/08/28 02:15:47;;;;;;;4.95;3.95;;;16.90;99.90;;;;;;5048160;28;20061;-80
2022/08/28 02:18:13;;;;;;;5.70;3.55;;;16.90;99.90;;;;;;5047646;28;20025;-80
2022/08/28 02:20:41;;;;;;;5.55;4.03;;;16.90;99.90;;;;;;5046730;28;20039;-80
2022/08/28 02:23:07;;;;;;;5.47;3.83;;;16.90;99.90;;;;;;5030871;28;20055;-80
2022/08/28 02:25:34;;;;;;;4.85;3.60;;;16.90;99.90;;;;;;5047296;28;20021;-80
2022/08/28 02:27:59;;;;;;;4.57;3.70;;;16.90;99.90;;;;;;5047505;28;20037;-80
2022/08/28 02:30:26;;;;;;;5.53;3.97;;;16.90;99.90;;;;;;5047609;28;21031;-80
2022/08/28 02:32:52;;;;;;;7.60;3.47;;;16.90;99.90;;;;;;5047626;28;20033;-80
2022/08/28 02:35:19;;;;;;;4.63;3.58;;;16.90;99.90;;;;;;5046961;28;20082;-80
2022/08/28 02:37:46;;;;;;;5.65;3.53;;;16.90;99.90;;;;;;5032944;28;20477;-80
2022/08/28 02:40:13;;;;;;;5.78;3.72;;;16.90;99.90;;;;;;5047222;28;20036;-80
2022/08/28 02:42:40;;;;;;;4.72;3.53;;;16.90;99.90;;;;;;5046763;28;20021;-80
2022/08/28 02:45:09;;;;;;;5.18;3.35;;;16.90;99.90;;;;;;5046990;28;20028;-80
2022/08/28 02:47:35;;;;;;;4.70;3.25;;;16.90;99.90;;;;;;5047135;28;20032;-80
2022/08/28 02:50:00;;;;;;;4.45;3.33;;;16.80;99.90;;;;;;5046819;28;20413;-80
2022/08/28 02:52:26;;;;;;;7.35;3.60;;;16.90;99.90;;;;;;5041901;28;20504;-80
2022/08/28 02:54:51;;;;;;;4.32;3.40;;;16.80;99.90;;;;;;5046983;28;20088;-80
2022/08/28 02:57:17;;;;;;;4.05;3.40;;;16.90;99.90;;;;;;5034106;28;20045;-80
2022/08/28 02:59:43;;;;;;;4.10;3.00;;;16.90;99.90;;;;;;5045338;28;20044;-79
2022/08/28 03:02:08;;;;;;;4.60;3.42;;;16.80;99.90;;;;;;5036415;28;20072;-80
2022/08/28 03:04:36;;;;;;;4.45;3.60;;;16.80;99.90;;;;;;5043046;28;20025;-80
2022/08/28 03:07:03;;;;;;;4.00;3.53;;;16.90;99.90;;;;;;5032648;28;20116;-80
2022/08/28 03:09:29;;;;;;;4.28;3.53;;;16.90;99.90;;;;;;5046838;28;20373;-80
2022/08/28 03:11:54;;;;;;;3.97;3.38;;;16.90;99.90;;;;;;5047072;28;20029;-79
2022/08/28 03:14:21;;;;;;;4.53;3.00;;;16.90;99.90;;;;;;5041796;28;20109;-80
2022/08/28 03:16:47;;;;;;;5.88;3.55;;;16.90;99.90;;;;;;5038549;28;20778;-80
2022/08/28 03:19:13;;;;;;;4.78;3.75;;;16.90;99.90;;;;;;5046860;28;20473;-80
2022/08/28 03:21:38;;;;;;;4.75;3.70;;;16.90;99.90;;;;;;5046685;28;20025;-80
2022/08/28 03:24:04;;;;;;;3.80;2.90;;;16.90;99.90;;;;;;5046737;28;20067;-80
2022/08/28 03:26:30;;;;;;;4.55;3.17;;;16.90;99.90;;;;;;5046428;28;20512;-79
2022/08/28 03:28:56;;;;;;;5.15;3.60;;;16.90;99.90;;;;;;5047179;28;20045;-79
2022/08/28 03:31:24;;;;;;;6.20;3.42;;;16.90;99.90;;;;;;5031402;28;20034;-80
2022/08/28 03:33:51;;;;;;;6.45;3.45;;;16.90;99.90;;;;;;5034622;28;20029;-79
2022/08/28 03:36:23;;;;;;;3.72;3.35;;;16.90;99.90;;;;;;5043647;28;20029;-80
2022/08/28 03:38:50;;;;;;;5.30;3.42;;;16.90;99.90;;;;;;5029772;28;20029;-80
2022/08/28 03:41:18;;;;;;;5.38;3.28;;;16.90;99.90;;;;;;5025524;28;20368;-80
2022/08/28 03:43:45;;;;;;;4.28;3.50;;;16.90;99.90;;;;;;5027079;28;20676;-80
2022/08/28 03:46:22;;;;;;;5.53;3.97;;;16.90;99.90;;;;;;5027386;28;21066;-79
2022/08/28 03:48:49;;;;;;;6.13;3.63;;;16.80;99.90;;;;;;5026944;28;20021;-80
2022/08/28 03:51:21;;;;;;;5.32;3.55;;;16.90;99.90;;;;;;5027131;28;20038;-79
2022/08/28 03:53:47;;;;;;;5.45;3.90;;;16.90;99.90;;;;;;5026763;28;20029;-80
2022/08/28 03:56:17;;;;;;;5.90;3.85;;;16.80;99.90;;;;;;5026931;28;20052;-80
2022/08/28 03:58:43;;;;;;;6.88;3.70;;;16.90;99.90;;;;;;5026730;28;20061;-80
2022/08/28 04:01:09;;;;;;;7.35;4.32;;;16.90;99.90;;;;;;5026728;28;20128;-80
2022/08/28 04:03:35;;;;;;;5.18;4.10;;;16.90;99.90;;;;;;5026953;28;20502;-80
2022/08/28 04:06:01;;;;;;;6.10;4.03;;;16.90;99.90;;;;;;5029969;28;20029;-80
2022/08/28 04:08:28;;;;;;;5.30;4.45;;;16.90;99.90;;;;;;5045204;28;20433;-79
2022/08/28 04:10:54;;;;;;;5.63;4.28;;;16.90;99.90;;;;;;5050194;28;20059;-80
2022/08/28 04:13:21;;;;;;;8.05;4.43;;;16.90;99.90;;;;;;5050307;28;20111;-79
2022/08/28 04:16:01;;;;;;;5.60;4.40;;;16.90;99.90;;;;;;5049843;28;20036;-80
2022/08/28 04:18:28;;;;;;;5.70;4.60;;;16.90;99.90;;;;;;5049092;28;20032;-80
2022/08/28 04:21:03;;;;;;;7.68;4.47;;;16.90;99.90;;;;;;5049751;28;20363;-80
2022/08/28 04:23:29;;;;;;;5.20;4.30;;;16.90;99.90;;;;;;5050584;28;20060;-80
2022/08/28 04:25:54;;;;;;;5.72;4.70;;;16.90;99.90;;;;;;5049638;28;20067;-80
2022/08/28 04:28:21;;;;;;;5.72;4.70;;;16.90;99.90;;;;;;5049513;28;20107;-79
2022/08/28 04:30:50;;;;;;;8.15;5.13;;;16.90;99.90;;;;;;5040114;28;20017;-80
2022/08/28 04:33:16;;;;;;;6.68;5.35;;;16.80;99.90;;;;;;5049895;28;20017;-80
2022/08/28 04:35:42;;;;;;;5.95;4.70;;;16.90;99.90;;;;;;5035472;28;20068;-79
2022/08/28 04:38:07;;;;;;;9.23;5.25;;;16.90;99.90;;;;;;5050141;28;20544;-80
2022/08/28 04:40:33;;;;;;;5.65;4.72;;;16.90;99.90;;;;;;5046731;28;20025;-80
2022/08/28 04:42:58;;;;;;;6.07;5.45;;;16.90;99.90;;;;;;5049224;28;20043;-80
2022/08/28 04:45:24;;;;;;;6.97;5.40;;;16.90;99.90;;;;;;5049541;28;20047;-79
2022/08/28 04:47:49;;;;;;;7.30;5.32;;;16.90;99.90;;;;;;5049268;28;20029;-79
2022/08/28 04:50:15;;;;;;;7.07;5.63;;;16.90;99.90;;;;;;5049930;28;20029;-79
2022/08/28 04:52:42;;;;;;;6.47;5.57;;;16.90;99.90;;;;;;5044187;28;20027;-79
2022/08/28 04:55:08;;;;;;;8.48;5.55;;;16.90;99.90;;;;;;5049553;28;20021;-80
2022/08/28 04:57:34;;;;;;;10.00;5.40;;;17.00;99.90;;;;;;5049565;28;20123;-79
2022/08/28 04:59:59;;;;;;;7.18;5.25;;;16.90;99.90;;;;;;5049409;28;20538;-79
2022/08/28 05:02:25;;;;;;;7.65;5.63;;;17.00;99.90;;;;;;5047245;28;20037;-79
2022/08/28 05:04:51;;;;;;;6.45;5.75;;;17.00;99.90;;;;;;5049405;28;20025;-80
2022/08/28 05:07:16;;;;;;;7.88;5.72;;;17.00;99.90;;;;;;5034531;28;20382;-80
2022/08/28 05:09:42;;;;;;;7.32;5.70;;;17.00;99.90;;;;;;5044778;28;20112;-79
2022/08/28 05:12:07;;;;;;;17.08;6.70;;;17.00;99.90;;;;;;5046419;28;20021;-80
2022/08/28 05:14:34;;;;;;;8.18;5.93;;;17.00;99.90;;;;;;5048729;28;20029;-79
2022/08/28 05:16:59;;;;;;;8.13;5.68;;;17.00;99.90;;;;;;5048769;28;20029;-80
2022/08/28 05:19:26;;;;;;;7.47;5.85;;;17.10;99.90;;;;;;5049009;28;20025;-80
2022/08/28 05:21:52;;;;;;;8.85;5.93;;;17.10;99.90;;;;;;5049028;28;20380;-80
2022/08/28 05:24:20;;;;;;;8.48;6.38;;;17.10;99.90;;;;;;5034336;28;20795;-80
2022/08/28 05:26:45;;;;;;;8.00;6.25;;;17.10;99.90;;;;;;5039310;28;20367;-80
2022/08/28 05:29:11;;;;;;;7.35;6.03;;;17.20;99.90;;;;;;5048815;28;20028;-80
2022/08/28 05:31:39;;;;;;;9.10;6.82;;;17.20;99.90;;;;;;5048751;28;20032;-80
2022/08/28 05:34:05;;;;;;;8.27;6.90;;;17.20;99.90;;;;;;5037942;28;20486;-80
2022/08/28 05:36:34;;;;;;;9.73;6.53;;;17.20;99.90;;;;;;5048492;28;20035;-80
2022/08/28 05:39:03;;;;;;;6.72;6.00;;;17.20;99.90;;;;;;5048492;28;20021;-80
2022/08/28 05:41:30;;;;;;;8.30;6.55;;;17.30;99.90;;;;;;5048808;28;20025;-80
2022/08/28 05:44:01;;;;;;;9.23;6.15;;;17.30;99.90;;;;;;5048133;28;20028;-79
2022/08/28 05:46:27;;;;;;;8.43;5.68;;;17.30;99.90;;;;;;5042707;28;20033;-80
2022/08/28 05:48:54;;;;;;;7.30;6.32;;;17.30;99.90;;;;;;5036661;28;20021;-79
2022/08/28 05:51:22;;;;;;;6.70;6.00;;;17.30;99.90;;;;;;5046646;28;20037;-80
2022/08/28 05:53:48;;;;;;;6.93;5.95;;;17.30;99.90;;;;;;5044844;28;20033;-80
2022/08/28 05:56:17;;;;;;;7.38;5.30;;;17.30;99.90;;;;;;5047495;28;20179;-79
2022/08/28 05:58:43;;;;;;;6.63;5.05;;;17.40;99.90;;;;;;5048095;28;20104;-80
2022/08/28 06:01:18;;;;;;;6.85;5.85;;;17.30;99.90;;;;;;5036304;28;20129;-80
2022/08/28 06:03:51;;;;;;;7.15;5.63;;;17.40;99.90;;;;;;5048539;28;20033;-80
2022/08/28 06:06:17;;;;;;;6.72;4.93;;;17.40;99.90;;;;;;5036818;28;20029;-80
2022/08/28 06:08:42;;;;;;;6.68;5.18;;;17.40;99.90;;;;;;5042766;28;20033;-80
2022/08/28 06:11:08;;;;;;;8.63;5.53;;;17.40;99.90;;;;;;5048100;28;20029;-80
2022/08/28 06:13:34;;;;;;;6.28;5.18;;;17.50;99.90;;;;;;5047825;28;20116;-80
2022/08/28 06:16:00;;;;;;;8.13;5.30;;;17.50;99.90;;;;;;5048070;28;20033;-80
2022/08/28 06:18:26;;;;;;;5.63;4.90;;;17.50;99.90;;;;;;5044394;28;20100;-80
2022/08/28 06:20:52;;;;;;;5.07;4.57;;;17.50;99.90;;;;;;5048054;28;20087;-80
2022/08/28 06:23:20;;;;;;;6.03;4.90;;;17.60;99.90;;;;;;5043118;28;20029;-80
2022/08/28 06:25:48;;;;;;;6.15;5.15;;;17.60;99.90;;;;;;5042547;28;20017;-80
2022/08/28 06:28:20;;;;;;;6.30;5.18;;;17.60;99.90;;;;;;5044264;28;20036;-80
2022/08/28 06:30:46;;;;;;;6.47;5.88;;;17.70;99.90;;;;;;5039920;28;20022;-80
2022/08/28 06:33:12;;;;;;;8.43;6.80;;;17.70;99.90;;;;;;5046700;28;20123;-80
2022/08/28 06:35:43;;;;;;;8.98;7.88;;;17.80;99.90;;;;;;5043196;28;20168;-80
2022/08/28 06:38:10;;;;;;;9.43;8.43;;;17.80;99.90;;;;;;5036281;28;20032;-80
2022/08/28 06:40:44;;;;;;;11.50;9.07;;;17.80;99.90;;;;;;5041652;28;20841;-81
2022/08/28 06:43:10;;;;;;;12.40;9.57;;;17.90;99.90;;;;;;5043544;28;21351;-80
2022/08/28 06:45:41;;;;;;;13.00;9.65;;;17.90;99.90;;;;;;5045566;28;20108;-80
2022/08/28 06:48:09;;;;;;;15.63;10.85;;;17.90;99.90;;;;;;5029918;28;20056;-80
2022/08/28 06:50:38;;;;;;;16.92;11.25;;;18.00;99.90;;;;;;5045928;28;20558;-80
2022/08/28 06:53:05;;;;;;;13.82;12.00;;;18.00;99.90;;;;;;5037820;28;20033;-80
2022/08/28 06:55:31;;;;;;;18.05;12.68;;;18.00;99.90;;;;;;5034776;28;20506;-80
2022/08/28 06:57:56;;;;;;;20.42;13.35;;;18.00;99.90;;;;;;5032376;28;20053;-80
2022/08/28 07:00:22;;;;;;;16.05;13.65;;;18.00;99.90;;;;;;5033223;28;20060;-80
2022/08/28 07:02:47;;;;;;;15.60;13.35;;;18.00;99.90;;;;;;5026905;28;20037;-80
2022/08/28 07:05:14;;;;;;;17.10;14.90;;;18.00;99.90;;;;;;5039516;28;20116;-80
2022/08/28 07:07:39;;;;;;;22.02;14.50;;;18.00;99.90;;;;;;5036457;28;20044;-80
2022/08/28 07:10:05;;;;;;;19.55;14.70;;;18.00;99.90;;;;;;5046414;28;20047;-80
2022/08/28 07:12:31;;;;;;;19.58;15.95;;;18.10;99.90;;;;;;5046934;28;20045;-80
2022/08/28 07:14:56;;;;;;;19.95;14.77;;;18.10;99.90;;;;;;5047242;28;20484;-80
2022/08/28 07:17:22;;;;;;;19.55;15.82;;;18.10;99.90;;;;;;5046139;28;20386;-80
2022/08/28 07:19:48;;;;;;;22.98;15.05;;;18.00;99.90;;;;;;5045650;28;20040;-80
2022/08/28 07:22:13;;;;;;;16.38;14.60;;;18.10;99.90;;;;;;5047006;28;20073;-80
2022/08/28 07:24:39;;;;;;;22.05;15.60;;;18.10;99.90;;;;;;5046320;28;20548;-80
2022/08/28 07:27:04;;;;;;;18.95;14.63;;;18.10;99.90;;;;;;5045919;28;20071;-80
2022/08/28 07:29:30;;;;;;;20.15;15.15;;;18.20;99.90;;;;;;5046471;28;20060;-80
2022/08/28 07:31:57;;;;;;;19.08;16.20;;;18.10;99.90;;;;;;5046305;28;20041;-80
2022/08/28 07:34:23;;;;;;;21.88;15.20;;;18.20;99.90;;;;;;5046547;28;20053;-80
2022/08/28 07:36:52;;;;;;;21.55;15.60;;;18.10;99.90;;;;;;5046201;28;20029;-80
2022/08/28 07:39:18;;;;;;;21.67;16.17;;;18.20;99.90;;;;;;5048745;28;20075;-80
2022/08/28 07:41:46;;;;;;;29.85;17.20;;;18.10;99.90;;;;;;5050484;28;20025;-82
2022/08/28 07:47:02;;;;;;;13.65;9.85;;;17.90;99.90;;;;;;5050939;28;20386;-81
2022/08/28 07:49:29;;;;;;;8.18;5.45;;;17.70;99.90;;;;;;5050322;28;20028;-81
2022/08/28 07:51:54;;;;;;;8.27;5.50;;;17.60;99.90;;;;;;5050719;28;20033;-81
2022/08/28 07:54:21;;;;;;;9.20;6.70;;;17.50;99.90;;;;;;5050467;28;20033;-81
2022/08/28 07:56:47;;;;;;;9.45;8.45;;;17.40;99.90;;;;;;5049864;28;20493;-82
2022/08/28 07:59:13;;;;;;;9.98;8.77;;;17.30;99.90;;;;;;5050719;28;20029;-81
2022/08/28 08:01:42;;;;;;;10.18;9.05;;;17.30;99.90;;;;;;5050299;28;20485;-81
2022/08/28 08:04:11;;;;;;;12.07;9.82;;;17.30;99.90;;;;;;5049937;28;20036;-81
2022/08/28 08:06:37;;;;;;;12.80;9.45;;;17.30;99.90;;;;;;5035506;28;20037;-80
2022/08/28 08:09:04;;;;;;;8.90;8.00;;;17.30;99.90;;;;;;5050541;28;20032;-80
2022/08/28 08:11:30;;;;;;;10.98;9.40;;;17.30;99.90;;;;;;5050049;28;20067;-81
2022/08/28 08:13:56;;;;;;;12.30;10.13;;;17.30;99.90;;;;;;5049280;28;20085;-80
2022/08/28 08:16:24;;;;;;;12.48;10.32;;;17.30;99.90;;;;;;5050264;28;20064;-81
2022/08/28 08:18:50;;;;;;;13.15;10.30;;;17.40;99.90;;;;;;5049205;28;20084;-80
2022/08/28 08:21:19;;;;;;;12.15;10.23;;;17.40;99.90;;;;;;5049951;28;20036;-80
2022/08/28 08:23:45;;;;;;;12.02;10.45;;;17.40;99.90;;;;;;5049682;28;20390;-80
2022/08/28 08:26:17;;;;;;;13.15;11.70;;;17.50;99.90;;;;;;5049222;28;20029;-80
2022/08/28 08:28:44;;;;;;;13.18;11.77;;;17.50;99.90;;;;;;5048844;28;20037;-79
2022/08/28 08:31:14;;;;;;;14.30;12.80;;;17.50;99.90;;;;;;5037002;28;20039;-79
2022/08/28 08:33:43;;;;;;;15.35;13.10;;;17.50;99.90;;;;;;5034535;28;20037;-80
2022/08/28 08:36:11;;;;;;;14.80;12.48;;;17.50;99.90;;;;;;5032690;28;20036;-79
2022/08/28 08:38:37;;;;;;;15.30;12.23;;;17.50;99.90;;;;;;5034821;28;20033;-79
2022/08/28 08:41:14;;;;;;;16.42;13.45;;;17.50;99.90;;;;;;5039177;28;20108;-79
2022/08/28 08:43:51;;;;;;;14.50;11.95;;;17.50;99.90;;;;;;5030120;28;20849;-80
2022/08/28 08:46:20;;;;;;;12.85;11.55;;;17.60;99.90;;;;;;5033958;28;20560;-79
2022/08/28 08:48:46;;;;;;;13.50;11.75;;;17.60;99.90;;;;;;5037925;28;20061;-80
2022/08/28 08:51:25;;;;;;;13.75;12.32;;;17.60;99.90;;;;;;5034424;28;20576;-80
2022/08/28 08:54:04;;;;;;;14.40;12.35;;;17.70;99.90;;;;;;5045602;28;20497;-80
2022/08/28 08:56:30;;;;;;;14.40;12.90;;;17.70;99.90;;;;;;5047710;28;20052;-80
2022/08/28 08:59:00;;;;;;;15.90;13.73;;;17.70;99.90;;;;;;5036768;28;20033;-80
2022/08/28 09:02:00;;;;;;;15.85;14.15;;;17.80;99.90;;;;;;5042754;28;20044;-80
2022/08/28 09:04:47;;;;;;;17.40;15.10;;;17.80;99.90;;;;;;5040392;28;20109;-80
2022/08/28 09:07:22;;;;;;;19.73;15.98;;;17.80;99.90;;;;;;5032165;28;20033;-80
2022/08/28 09:09:54;;;;;;;19.20;16.70;;;17.90;99.90;;;;;;5028267;28;20033;-80
2022/08/28 09:12:25;;;;;;;22.98;18.42;;;18.00;99.90;;;;;;5048176;28;20032;-80
2022/08/28 09:15:03;;;;;;;19.63;16.92;;;18.00;99.90;;;;;;5044092;28;20112;-79
2022/08/28 09:17:36;;;;;;;20.15;17.85;;;18.00;99.90;;;;;;5048234;28;20075;-80
2022/08/28 09:20:07;;;;;;;21.92;17.73;;;18.10;99.90;;;;;;5033392;28;20036;-79
2022/08/28 09:22:33;;;;;;;21.08;18.42;;;18.10;99.90;;;;;;5048601;28;20067;-80
2022/08/28 09:24:59;;;;;;;22.17;18.33;;;18.20;99.90;;;;;;5040321;28;20066;-80
2022/08/28 09:27:27;;;;;;;21.45;18.02;;;18.20;99.90;;;;;;5045642;28;20557;-80
2022/08/28 09:29:59;;;;;;;22.35;18.50;;;18.30;99.90;;;;;;5041496;28;20090;-80
2022/08/28 09:32:43;;;;;;;25.00;19.33;;;18.30;99.90;;;;;;5044878;28;20036;-80
2022/08/28 09:35:25;;;;;;;23.85;19.88;;;18.30;99.90;;;;;;5039323;28;20033;-80
2022/08/28 09:37:51;;;;;;;24.05;19.90;;;18.30;99.90;;;;;;5048264;28;20017;-80
2022/08/28 09:43:25;;;;;;;24.85;20.30;;;18.30;99.90;;;;;;5028870;28;20037;-80
2022/08/28 09:46:20;;;;;;;25.67;20.20;;;18.30;99.90;;;;;;5030099;28;20025;-80
2022/08/28 09:48:51;;;;;;;22.45;19.40;;;18.40;99.90;;;;;;5028803;28;20087;-80
2022/08/28 09:51:19;;;;;;;25.02;21.25;;;18.40;99.90;;;;;;5036083;28;20032;-80
2022/08/28 09:53:51;;;;;;;25.42;20.27;;;18.40;99.90;;;;;;5043878;28;20033;-81
2022/08/28 09:56:23;;;;;;;23.77;20.80;;;18.50;99.90;;;;;;5030837;28;20179;-81
2022/08/28 09:59:06;;;;;;;24.50;20.48;;;18.60;99.90;;;;;;5037576;28;20017;-81
2022/08/28 10:02:01;;;;;;;24.98;20.88;;;18.60;99.90;;;;;;5028363;28;20037;-81
2022/08/28 10:04:53;;;;;;;26.05;21.25;;;18.70;99.90;;;;;;5026814;28;20140;-81
2022/08/28 10:07:34;;;;;;;25.92;20.00;;;18.80;99.90;;;;;;5032812;28;20071;-81
2022/08/28 10:10:15;;;;;;;28.38;21.58;;;18.80;99.90;;;;;;5040220;28;20033;-81
2022/08/28 10:12:41;;;;;;;24.55;20.73;;;18.90;99.90;;;;;;5046724;28;20366;-81
2022/08/28 10:15:28;;;;;;;26.30;20.38;;;18.90;99.90;;;;;;5046293;28;20039;-81
2022/08/28 10:18:06;;;;;;;25.83;21.52;;;18.90;99.90;;;;;;5041709;28;20065;-81
2022/08/28 10:20:59;;;;;;;22.70;19.67;;;19.00;99.90;;;;;;5030301;28;20037;-81
2022/08/28 10:23:42;;;;;;;24.40;20.55;;;19.10;99.90;;;;;;5046133;28;20465;-81
2022/08/28 10:26:31;;;;;;;25.27;20.60;;;19.10;99.90;;;;;;5021242;28;20075;-81
2022/08/28 10:29:30;;;;;;;23.88;20.40;;;19.10;99.90;;;;;;5041649;28;20080;-81
2022/08/28 10:32:22;;;;;;;24.35;21.45;;;19.00;99.90;;;;;;5043850;28;20033;-81
2022/08/28 10:35:21;;;;;;;27.33;22.23;;;19.00;99.90;;;;;;5027440;28;20029;-81
2022/08/28 10:38:15;;;;;;;25.27;20.60;;;18.90;99.90;;;;;;5041920;28;20719;-81
2022/08/28 10:41:12;;;;;;;27.77;21.15;;;19.00;99.90;;;;;;5040423;28;20501;-81
2022/08/28 10:43:45;;;;;;;25.77;20.70;;;19.00;99.90;;;;;;5028268;28;20217;-81
2022/08/28 10:46:43;;;;;;;28.75;21.30;;;19.10;99.90;;;;;;5030787;28;20048;-81
2022/08/28 10:49:25;;;;;;;28.40;20.80;;;19.00;99.90;;;;;;5040599;28;20408;-81
2022/08/28 10:51:58;;;;;;;23.30;19.60;;;19.20;99.90;;;;;;5032270;28;20071;-81
2022/08/28 10:54:54;;;;;;;26.73;21.88;;;19.20;99.90;;;;;;5042398;28;20029;-81
2022/08/28 10:57:35;;;;;;;21.35;18.88;;;19.30;99.90;;;;;;5029595;28;20057;-81
2022/08/28 11:00:21;;;;;;;24.15;20.45;;;19.40;99.90;;;;;;5037603;28;20029;-81
2022/08/28 11:02:54;;;;;;;21.30;19.02;;;19.50;99.90;;;;;;5045959;28;20489;-81
2022/08/28 11:05:22;;;;;;;25.98;19.83;;;19.60;99.90;;;;;;5027278;28;20390;-80
2022/08/28 11:07:53;;;;;;;23.00;18.50;;;19.60;99.90;;;;;;5032957;28;20061;-81
2022/08/28 11:10:27;;;;;;;22.45;19.85;;;19.60;99.90;;;;;;5042802;28;20021;-81
2022/08/28 11:12:54;;;;;;;23.85;19.42;;;19.70;99.90;;;;;;5039689;28;20079;-81
2022/08/28 11:15:48;;;;;;;26.02;19.85;;;19.80;99.90;;;;;;5032256;28;20132;-80
2022/08/28 11:18:14;;;;;;;20.45;18.15;;;19.80;99.90;;;;;;5037764;28;20052;-81
2022/08/28 11:20:53;;;;;;;19.73;17.13;;;19.90;99.90;;;;;;5027639;28;20343;-81
2022/08/28 11:23:32;;;;;;;22.05;17.77;;;19.90;99.90;;;;;;5028061;28;20053;-80
2022/08/28 11:26:05;;;;;;;25.80;19.60;;;19.90;99.90;;;;;;5022690;28;20021;-81
2022/08/28 11:28:33;;;;;;;21.27;18.50;;;19.90;99.90;;;;;;5030254;28;20105;-81
2022/08/28 11:31:02;;;;;;;21.67;18.27;;;20.00;99.90;;;;;;5030242;28;20025;-80
2022/08/28 11:33:37;;;;;;;20.70;18.40;;;20.00;99.90;;;;;;5028377;28;20033;-85
2022/08/28 11:36:08;;;;;;;23.58;19.55;;;20.00;99.90;;;;;;5030748;28;20035;-85
2022/08/28 11:38:40;;;;;;;24.33;20.63;;;20.00;99.90;;;;;;5030435;28;20044;-85
2022/08/28 11:41:13;;;;;;;24.38;20.23;;;19.90;99.90;;;;;;5037542;28;20027;-85
2022/08/28 11:43:42;;;;;;;24.85;20.17;;;19.80;99.90;;;;;;5031247;28;20120;-81
2022/08/28 11:46:36;;;;;;;23.05;20.60;;;19.80;99.90;;;;;;5031655;28;20026;-80
2022/08/28 11:49:27;;;;;;;24.58;20.48;;;19.70;99.90;;;;;;5032792;28;20369;-80
2022/08/28 11:52:05;;;;;;;25.25;21.25;;;19.80;99.90;;;;;;5033885;28;20037;-80
2022/08/28 11:55:12;;;;;;;25.73;20.33;;;19.80;99.90;;;;;;5029969;28;20108;-80
2022/08/28 11:58:03;;;;;;;22.67;20.05;;;19.90;99.90;;;;;;5018341;28;20045;-80
2022/08/28 12:01:03;;;;;;;24.38;21.08;;;20.00;99.90;;;;;;5030171;28;20036;-80
2022/08/28 12:03:52;;;;;;;22.77;20.20;;;20.00;99.90;;;;;;5026015;28;20473;-80
2022/08/28 12:06:43;;;;;;;24.50;21.77;;;20.10;99.90;;;;;;5019470;28;20049;-80
2022/08/28 12:09:29;;;;;;;23.40;20.70;;;20.10;99.90;;;;;;5049355;28;20025;-80
2022/08/28 12:12:22;;;;;;;23.38;18.55;;;20.10;99.90;;;;;;5040733;28;20085;-80
2022/08/28 12:14:47;;;;;;;22.10;18.90;;;20.10;99.90;;;;;;5049398;28;20025;-80
2022/08/28 12:17:19;;;;;;;20.77;18.10;;;20.10;99.90;;;;;;5043347;28;20110;-79
2022/08/28 12:20:09;;;;;;;20.55;17.35;;;20.20;99.90;;;;;;5043659;28;20052;-79
2022/08/28 12:22:49;;;;;;;19.52;17.52;;;20.20;99.90;;;;;;5047110;28;20039;-80
2022/08/28 12:25:36;;;;;;;20.92;18.73;;;20.30;99.90;;;;;;5048643;28;20052;-80
2022/08/28 12:28:28;;;;;;;22.92;19.52;;;20.30;99.90;;;;;;5042661;28;20499;-80
2022/08/28 12:32:09;;;;;;;22.52;17.83;;;20.30;99.90;;;;;;5043862;28;20494;-79
2022/08/28 12:34:23;;;;;;;21.30;18.98;;;20.30;99.90;;;;;;5044104;28;20052;-80
2022/08/28 12:37:00;;;;;;;22.83;20.40;;;20.30;99.90;;;;;;5036063;28;20079;-79
2022/08/28 12:39:27;;;;;;;24.58;21.15;;;20.20;99.90;;;;;;5029769;28;20033;-80
2022/08/28 12:41:53;;;;;;;23.15;20.15;;;20.20;99.90;;;;;;5031526;28;20032;-79
2022/08/28 12:44:24;;;;;;;25.00;20.90;;;20.20;99.90;;;;;;5035154;28;20017;-79
2022/08/28 12:46:51;;;;;;;26.15;20.50;;;20.20;99.90;;;;;;5030844;28;20069;-79
2022/08/28 12:49:35;;;;;;;23.60;20.98;;;20.10;99.90;;;;;;5029046;28;20035;-79
2022/08/28 12:52:15;;;;;;;22.80;19.90;;;20.20;99.90;;;;;;5035698;28;20061;-79
2022/08/28 12:54:41;;;;;;;22.20;19.52;;;20.20;99.90;;;;;;5031322;28;20385;-83
2022/08/28 12:57:10;;;;;;;22.75;19.33;;;20.30;99.90;;;;;;5032392;28;20046;-83
2022/08/28 12:59:38;;;;;;;22.83;20.13;;;20.30;99.90;;;;;;5032809;28;20065;-84
2022/08/28 13:02:30;;;;;;;21.90;19.30;;;20.30;99.90;;;;;;5032740;28;20025;-83
2022/08/28 13:05:07;;;;;;;23.67;18.98;;;20.30;99.90;;;;;;5032138;28;20493;-83
2022/08/28 13:07:48;;;;;;;22.05;19.67;;;20.40;99.90;;;;;;5035992;28;20037;-83
2022/08/28 13:10:21;;;;;;;23.20;19.58;;;20.50;99.90;;;;;;5034968;28;20470;-84